sensor_id;sensor_type;location;lat;lon;timestamp;P1;durP1;ratioP1;P2;durP2;ratioP2
11805;SDS011;5960;42.602;23.482;2022-08-27T00:00:15;1.55;;;1.20;;
11805;SDS011;5960;42.602;23.482;2022-08-27T00:02:43;1.23;;;1.10;;
11805;SDS011;5960;42.602;23.482;2022-08-27T00:05:10;1.48;;;1.30;;
11805;SDS011;5960;42.602;23.482;2022-08-27T00:07:39;1.23;;;1.13;;
11805;SDS011;5960;42.602;23.482;2022-08-27T00:10:06;1.48;;;1.38;;
11805;SDS011;5960;42.602;23.482;2022-08-27T00:12:37;1.23;;;0.90;;
11805;SDS011;5960;42.602;23.482;2022-08-27T00:15:04;1.88;;;1.25;;
11805;SDS011;5960;42.602;23.482;2022-08-27T00:17:32;2.13;;;1.30;;
11805;SDS011;5960;42.602;23.482;2022-08-27T00:19:59;1.63;;;1.10;;
11805;SDS011;5960;42.602;23.482;2022-08-27T00:22:26;1.05;;;1.02;;
11805;SDS011;5960;42.602;23.482;2022-08-27T00:24:53;1.20;;;0.90;;
11805;SDS011;5960;42.602;23.482;2022-08-27T00:27:19;2.45;;;1.73;;
11805;SDS011;5960;42.602;23.482;2022-08-27T00:29:47;0.90;;;0.90;;
11805;SDS011;5960;42.602;23.482;2022-08-27T00:32:15;1.67;;;1.20;;
11805;SDS011;5960;42.602;23.482;2022-08-27T00:34:42;1.73;;;1.45;;
11805;SDS011;5960;42.602;23.482;2022-08-27T00:37:09;1.10;;;0.98;;
11805;SDS011;5960;42.602;23.482;2022-08-27T00:39:36;1.25;;;1.10;;
11805;SDS011;5960;42.602;23.482;2022-08-27T00:42:03;6.40;;;1.20;;
11805;SDS011;5960;42.602;23.482;2022-08-27T00:44:30;1.65;;;1.17;;
11805;SDS011;5960;42.602;23.482;2022-08-27T00:47:00;1.35;;;0.70;;
11805;SDS011;5960;42.602;23.482;2022-08-27T00:49:31;1.00;;;0.80;;
11805;SDS011;5960;42.602;23.482;2022-08-27T00:52:04;1.77;;;1.20;;
11805;SDS011;5960;42.602;23.482;2022-08-27T00:54:33;2.35;;;1.38;;
11805;SDS011;5960;42.602;23.482;2022-08-27T00:57:00;3.25;;;1.40;;
11805;SDS011;5960;42.602;23.482;2022-08-27T00:59:28;2.53;;;0.85;;
11805;SDS011;5960;42.602;23.482;2022-08-27T01:01:57;1.90;;;1.60;;
11805;SDS011;5960;42.602;23.482;2022-08-27T01:04:45;2.95;;;1.33;;
11805;SDS011;5960;42.602;23.482;2022-08-27T01:07:15;1.17;;;1.08;;
11805;SDS011;5960;42.602;23.482;2022-08-27T01:09:43;1.23;;;1.13;;
11805;SDS011;5960;42.602;23.482;2022-08-27T01:12:12;0.65;;;0.65;;
11805;SDS011;5960;42.602;23.482;2022-08-27T01:14:39;0.75;;;0.75;;
11805;SDS011;5960;42.602;23.482;2022-08-27T01:17:10;0.80;;;0.80;;
11805;SDS011;5960;42.602;23.482;2022-08-27T01:19:40;2.13;;;0.98;;
11805;SDS011;5960;42.602;23.482;2022-08-27T01:22:10;2.85;;;1.30;;
11805;SDS011;5960;42.602;23.482;2022-08-27T01:24:45;1.95;;;1.30;;
11805;SDS011;5960;42.602;23.482;2022-08-27T01:27:15;3.55;;;1.95;;
11805;SDS011;5960;42.602;23.482;2022-08-27T01:29:44;1.27;;;1.10;;
11805;SDS011;5960;42.602;23.482;2022-08-27T01:32:12;2.05;;;1.02;;
11805;SDS011;5960;42.602;23.482;2022-08-27T01:34:40;3.53;;;2.30;;
11805;SDS011;5960;42.602;23.482;2022-08-27T01:37:08;6.00;;;1.35;;
11805;SDS011;5960;42.602;23.482;2022-08-27T01:39:36;1.42;;;1.30;;
11805;SDS011;5960;42.602;23.482;2022-08-27T01:42:07;2.67;;;1.63;;
11805;SDS011;5960;42.602;23.482;2022-08-27T01:44:43;4.03;;;1.30;;
11805;SDS011;5960;42.602;23.482;2022-08-27T01:47:12;1.52;;;1.00;;
11805;SDS011;5960;42.602;23.482;2022-08-27T01:49:39;1.80;;;1.50;;
11805;SDS011;5960;42.602;23.482;2022-08-27T01:52:06;1.55;;;1.40;;
11805;SDS011;5960;42.602;23.482;2022-08-27T01:54:34;1.33;;;1.02;;
11805;SDS011;5960;42.602;23.482;2022-08-27T01:57:01;1.38;;;1.15;;
11805;SDS011;5960;42.602;23.482;2022-08-27T01:59:29;1.33;;;1.23;;
11805;SDS011;5960;42.602;23.482;2022-08-27T02:01:57;2.50;;;1.10;;
11805;SDS011;5960;42.602;23.482;2022-08-27T02:04:23;2.05;;;1.10;;
11805;SDS011;5960;42.602;23.482;2022-08-27T02:06:50;2.40;;;1.50;;
11805;SDS011;5960;42.602;23.482;2022-08-27T02:09:17;1.38;;;1.20;;
11805;SDS011;5960;42.602;23.482;2022-08-27T02:11:44;3.78;;;1.60;;
11805;SDS011;5960;42.602;23.482;2022-08-27T02:14:11;2.20;;;1.48;;
11805;SDS011;5960;42.602;23.482;2022-08-27T02:16:39;1.73;;;1.42;;
11805;SDS011;5960;42.602;23.482;2022-08-27T02:19:06;2.75;;;1.38;;
11805;SDS011;5960;42.602;23.482;2022-08-27T02:21:33;1.50;;;1.25;;
11805;SDS011;5960;42.602;23.482;2022-08-27T02:24:00;1.42;;;1.33;;
11805;SDS011;5960;42.602;23.482;2022-08-27T02:26:26;2.45;;;1.90;;
11805;SDS011;5960;42.602;23.482;2022-08-27T02:28:54;2.05;;;1.13;;
11805;SDS011;5960;42.602;23.482;2022-08-27T02:31:21;2.28;;;1.33;;
11805;SDS011;5960;42.602;23.482;2022-08-27T02:33:49;4.35;;;1.60;;
11805;SDS011;5960;42.602;23.482;2022-08-27T02:36:16;1.98;;;1.10;;
11805;SDS011;5960;42.602;23.482;2022-08-27T02:38:43;2.50;;;1.98;;
11805;SDS011;5960;42.602;23.482;2022-08-27T02:41:10;1.48;;;1.17;;
11805;SDS011;5960;42.602;23.482;2022-08-27T02:43:37;2.08;;;1.05;;
11805;SDS011;5960;42.602;23.482;2022-08-27T02:46:03;1.60;;;1.17;;
11805;SDS011;5960;42.602;23.482;2022-08-27T02:48:30;1.23;;;1.13;;
11805;SDS011;5960;42.602;23.482;2022-08-27T02:50:59;6.35;;;1.90;;
11805;SDS011;5960;42.602;23.482;2022-08-27T02:53:26;1.38;;;1.20;;
11805;SDS011;5960;42.602;23.482;2022-08-27T02:55:52;1.55;;;1.27;;
11805;SDS011;5960;42.602;23.482;2022-08-27T02:58:19;0.82;;;0.82;;
11805;SDS011;5960;42.602;23.482;2022-08-27T03:00:46;0.88;;;0.82;;
11805;SDS011;5960;42.602;23.482;2022-08-27T03:03:13;2.10;;;1.30;;
11805;SDS011;5960;42.602;23.482;2022-08-27T03:05:39;1.65;;;1.52;;
11805;SDS011;5960;42.602;23.482;2022-08-27T03:08:07;1.30;;;1.20;;
11805;SDS011;5960;42.602;23.482;2022-08-27T03:10:34;1.98;;;1.40;;
11805;SDS011;5960;42.602;23.482;2022-08-27T03:13:01;3.33;;;1.60;;
11805;SDS011;5960;42.602;23.482;2022-08-27T03:15:28;1.90;;;1.45;;
11805;SDS011;5960;42.602;23.482;2022-08-27T03:17:54;1.30;;;1.20;;
11805;SDS011;5960;42.602;23.482;2022-08-27T03:20:39;1.58;;;1.48;;
11805;SDS011;5960;42.602;23.482;2022-08-27T03:23:10;1.60;;;1.30;;
11805;SDS011;5960;42.602;23.482;2022-08-27T03:25:41;1.40;;;1.10;;
11805;SDS011;5960;42.602;23.482;2022-08-27T03:28:09;1.73;;;1.48;;
11805;SDS011;5960;42.602;23.482;2022-08-27T03:30:38;2.28;;;2.08;;
11805;SDS011;5960;42.602;23.482;2022-08-27T03:33:05;4.13;;;1.67;;
11805;SDS011;5960;42.602;23.482;2022-08-27T03:35:33;6.22;;;3.60;;
11805;SDS011;5960;42.602;23.482;2022-08-27T03:38:00;11.88;;;5.90;;
11805;SDS011;5960;42.602;23.482;2022-08-27T03:40:28;5.25;;;3.65;;
11805;SDS011;5960;42.602;23.482;2022-08-27T03:42:54;8.25;;;4.65;;
11805;SDS011;5960;42.602;23.482;2022-08-27T03:45:21;10.13;;;4.25;;
11805;SDS011;5960;42.602;23.482;2022-08-27T03:47:48;8.57;;;5.10;;
11805;SDS011;5960;42.602;23.482;2022-08-27T03:50:15;4.47;;;2.97;;
11805;SDS011;5960;42.602;23.482;2022-08-27T03:52:41;4.15;;;3.30;;
11805;SDS011;5960;42.602;23.482;2022-08-27T03:55:08;3.08;;;2.30;;
11805;SDS011;5960;42.602;23.482;2022-08-27T03:57:37;5.57;;;3.30;;
11805;SDS011;5960;42.602;23.482;2022-08-27T04:00:05;5.35;;;3.10;;
11805;SDS011;5960;42.602;23.482;2022-08-27T04:02:35;5.68;;;3.22;;
11805;SDS011;5960;42.602;23.482;2022-08-27T04:05:02;7.40;;;4.32;;
11805;SDS011;5960;42.602;23.482;2022-08-27T04:07:29;4.35;;;2.90;;
11805;SDS011;5960;42.602;23.482;2022-08-27T04:09:56;2.95;;;2.63;;
11805;SDS011;5960;42.602;23.482;2022-08-27T04:12:23;4.40;;;3.03;;
11805;SDS011;5960;42.602;23.482;2022-08-27T04:14:52;3.78;;;2.40;;
11805;SDS011;5960;42.602;23.482;2022-08-27T04:17:19;2.05;;;1.85;;
11805;SDS011;5960;42.602;23.482;2022-08-27T04:19:45;7.55;;;4.20;;
11805;SDS011;5960;42.602;23.482;2022-08-27T04:22:12;5.55;;;2.53;;
11805;SDS011;5960;42.602;23.482;2022-08-27T04:24:39;4.45;;;2.20;;
11805;SDS011;5960;42.602;23.482;2022-08-27T04:27:07;4.60;;;2.70;;
11805;SDS011;5960;42.602;23.482;2022-08-27T04:29:35;6.18;;;3.80;;
11805;SDS011;5960;42.602;23.482;2022-08-27T04:32:04;4.72;;;2.75;;
11805;SDS011;5960;42.602;23.482;2022-08-27T04:34:30;4.72;;;2.53;;
11805;SDS011;5960;42.602;23.482;2022-08-27T04:36:58;2.40;;;2.20;;
11805;SDS011;5960;42.602;23.482;2022-08-27T04:39:25;4.15;;;2.45;;
11805;SDS011;5960;42.602;23.482;2022-08-27T04:41:53;2.67;;;2.10;;
11805;SDS011;5960;42.602;23.482;2022-08-27T04:44:22;3.78;;;2.22;;
11805;SDS011;5960;42.602;23.482;2022-08-27T04:46:53;3.25;;;2.03;;
11805;SDS011;5960;42.602;23.482;2022-08-27T04:49:22;4.57;;;2.42;;
11805;SDS011;5960;42.602;23.482;2022-08-27T04:51:50;3.10;;;2.20;;
11805;SDS011;5960;42.602;23.482;2022-08-27T04:54:17;6.05;;;2.20;;
11805;SDS011;5960;42.602;23.482;2022-08-27T04:56:44;3.30;;;2.72;;
11805;SDS011;5960;42.602;23.482;2022-08-27T04:59:11;2.65;;;1.88;;
11805;SDS011;5960;42.602;23.482;2022-08-27T05:01:38;3.38;;;2.10;;
11805;SDS011;5960;42.602;23.482;2022-08-27T05:04:06;4.18;;;2.40;;
11805;SDS011;5960;42.602;23.482;2022-08-27T05:06:35;2.65;;;1.73;;
11805;SDS011;5960;42.602;23.482;2022-08-27T05:09:02;6.88;;;2.08;;
11805;SDS011;5960;42.602;23.482;2022-08-27T05:11:30;2.15;;;1.55;;
11805;SDS011;5960;42.602;23.482;2022-08-27T05:14:00;1.85;;;1.20;;
11805;SDS011;5960;42.602;23.482;2022-08-27T05:16:27;1.98;;;1.73;;
11805;SDS011;5960;42.602;23.482;2022-08-27T05:18:56;2.85;;;1.77;;
11805;SDS011;5960;42.602;23.482;2022-08-27T05:21:25;1.60;;;1.30;;
11805;SDS011;5960;42.602;23.482;2022-08-27T05:23:55;2.50;;;1.67;;
11805;SDS011;5960;42.602;23.482;2022-08-27T05:26:23;2.22;;;1.85;;
11805;SDS011;5960;42.602;23.482;2022-08-27T05:28:51;2.65;;;1.80;;
11805;SDS011;5960;42.602;23.482;2022-08-27T05:31:18;6.88;;;2.17;;
11805;SDS011;5960;42.602;23.482;2022-08-27T05:33:47;1.98;;;1.77;;
11805;SDS011;5960;42.602;23.482;2022-08-27T05:36:15;1.63;;;1.50;;
11805;SDS011;5960;42.602;23.482;2022-08-27T05:38:44;2.17;;;1.33;;
11805;SDS011;5960;42.602;23.482;2022-08-27T05:41:15;2.55;;;1.75;;
11805;SDS011;5960;42.602;23.482;2022-08-27T05:43:43;2.00;;;1.80;;
11805;SDS011;5960;42.602;23.482;2022-08-27T05:46:12;3.97;;;1.45;;
11805;SDS011;5960;42.602;23.482;2022-08-27T05:48:40;2.60;;;1.80;;
11805;SDS011;5960;42.602;23.482;2022-08-27T05:51:08;2.58;;;1.67;;
11805;SDS011;5960;42.602;23.482;2022-08-27T05:53:37;5.18;;;1.50;;
11805;SDS011;5960;42.602;23.482;2022-08-27T05:56:09;2.97;;;1.58;;
11805;SDS011;5960;42.602;23.482;2022-08-27T05:58:38;1.60;;;1.50;;
11805;SDS011;5960;42.602;23.482;2022-08-27T06:01:22;2.30;;;1.80;;
11805;SDS011;5960;42.602;23.482;2022-08-27T06:03:49;4.55;;;2.30;;
11805;SDS011;5960;42.602;23.482;2022-08-27T06:06:19;4.35;;;1.60;;
11805;SDS011;5960;42.602;23.482;2022-08-27T06:08:47;2.63;;;1.63;;
11805;SDS011;5960;42.602;23.482;2022-08-27T06:11:15;5.32;;;2.22;;
11805;SDS011;5960;42.602;23.482;2022-08-27T06:13:44;2.53;;;2.25;;
11805;SDS011;5960;42.602;23.482;2022-08-27T06:16:12;1.90;;;1.58;;
11805;SDS011;5960;42.602;23.482;2022-08-27T06:18:41;1.60;;;1.50;;
11805;SDS011;5960;42.602;23.482;2022-08-27T06:21:10;2.25;;;2.00;;
11805;SDS011;5960;42.602;23.482;2022-08-27T06:23:38;2.20;;;1.73;;
11805;SDS011;5960;42.602;23.482;2022-08-27T06:26:05;1.90;;;1.40;;
11805;SDS011;5960;42.602;23.482;2022-08-27T06:28:34;2.47;;;1.90;;
11805;SDS011;5960;42.602;23.482;2022-08-27T06:31:03;1.60;;;1.45;;
11805;SDS011;5960;42.602;23.482;2022-08-27T06:33:30;2.00;;;1.80;;
11805;SDS011;5960;42.602;23.482;2022-08-27T06:35:58;2.08;;;1.88;;
11805;SDS011;5960;42.602;23.482;2022-08-27T06:38:25;3.03;;;1.70;;
11805;SDS011;5960;42.602;23.482;2022-08-27T06:40:52;2.50;;;1.85;;
11805;SDS011;5960;42.602;23.482;2022-08-27T06:43:19;2.80;;;2.05;;
11805;SDS011;5960;42.602;23.482;2022-08-27T06:45:46;2.22;;;1.90;;
11805;SDS011;5960;42.602;23.482;2022-08-27T06:48:14;3.08;;;1.90;;
11805;SDS011;5960;42.602;23.482;2022-08-27T06:50:41;4.10;;;1.92;;
11805;SDS011;5960;42.602;23.482;2022-08-27T06:53:10;1.75;;;1.65;;
11805;SDS011;5960;42.602;23.482;2022-08-27T06:55:39;4.10;;;2.05;;
11805;SDS011;5960;42.602;23.482;2022-08-27T06:58:07;3.17;;;1.80;;
11805;SDS011;5960;42.602;23.482;2022-08-27T07:00:34;1.92;;;1.73;;
11805;SDS011;5960;42.602;23.482;2022-08-27T07:03:00;3.45;;;2.20;;
11805;SDS011;5960;42.602;23.482;2022-08-27T07:05:31;3.50;;;1.75;;
11805;SDS011;5960;42.602;23.482;2022-08-27T07:07:57;1.65;;;1.50;;
11805;SDS011;5960;42.602;23.482;2022-08-27T07:10:24;2.25;;;1.88;;
11805;SDS011;5960;42.602;23.482;2022-08-27T07:12:51;2.20;;;1.67;;
11805;SDS011;5960;42.602;23.482;2022-08-27T07:15:18;2.55;;;1.50;;
11805;SDS011;5960;42.602;23.482;2022-08-27T07:17:45;2.17;;;1.73;;
11805;SDS011;5960;42.602;23.482;2022-08-27T07:20:13;3.47;;;1.98;;
11805;SDS011;5960;42.602;23.482;2022-08-27T07:22:43;1.60;;;1.50;;
11805;SDS011;5960;42.602;23.482;2022-08-27T07:25:11;3.30;;;1.88;;
11805;SDS011;5960;42.602;23.482;2022-08-27T07:27:42;2.65;;;1.83;;
11805;SDS011;5960;42.602;23.482;2022-08-27T07:30:10;1.88;;;1.52;;
11805;SDS011;5960;42.602;23.482;2022-08-27T07:32:37;2.20;;;1.80;;
11805;SDS011;5960;42.602;23.482;2022-08-27T07:35:04;2.83;;;1.90;;
11805;SDS011;5960;42.602;23.482;2022-08-27T07:37:33;2.28;;;2.00;;
11805;SDS011;5960;42.602;23.482;2022-08-27T07:40:02;2.03;;;1.70;;
11805;SDS011;5960;42.602;23.482;2022-08-27T07:42:29;1.88;;;1.50;;
11805;SDS011;5960;42.602;23.482;2022-08-27T07:45:13;2.33;;;1.92;;
11805;SDS011;5960;42.602;23.482;2022-08-27T07:47:40;2.40;;;1.70;;
11805;SDS011;5960;42.602;23.482;2022-08-27T07:50:07;2.30;;;1.80;;
11805;SDS011;5960;42.602;23.482;2022-08-27T07:52:34;2.17;;;2.00;;
11805;SDS011;5960;42.602;23.482;2022-08-27T07:55:02;3.88;;;2.03;;
11805;SDS011;5960;42.602;23.482;2022-08-27T07:57:29;4.50;;;1.98;;
11805;SDS011;5960;42.602;23.482;2022-08-27T07:59:56;1.95;;;1.75;;
11805;SDS011;5960;42.602;23.482;2022-08-27T08:02:23;2.72;;;2.28;;
11805;SDS011;5960;42.602;23.482;2022-08-27T08:04:51;1.67;;;1.55;;
11805;SDS011;5960;42.602;23.482;2022-08-27T08:07:18;2.22;;;1.52;;
11805;SDS011;5960;42.602;23.482;2022-08-27T08:09:45;5.35;;;2.13;;
11805;SDS011;5960;42.602;23.482;2022-08-27T08:12:13;2.90;;;1.83;;
11805;SDS011;5960;42.602;23.482;2022-08-27T08:14:40;2.45;;;1.40;;
11805;SDS011;5960;42.602;23.482;2022-08-27T08:17:07;2.58;;;1.70;;
11805;SDS011;5960;42.602;23.482;2022-08-27T08:19:34;2.05;;;1.58;;
11805;SDS011;5960;42.602;23.482;2022-08-27T08:22:01;2.17;;;1.60;;
11805;SDS011;5960;42.602;23.482;2022-08-27T08:24:28;2.90;;;1.73;;
11805;SDS011;5960;42.602;23.482;2022-08-27T08:26:54;3.47;;;1.67;;
11805;SDS011;5960;42.602;23.482;2022-08-27T08:29:22;2.00;;;1.52;;
11805;SDS011;5960;42.602;23.482;2022-08-27T08:31:49;1.50;;;1.40;;
11805;SDS011;5960;42.602;23.482;2022-08-27T08:34:16;2.03;;;1.70;;
11805;SDS011;5960;42.602;23.482;2022-08-27T08:36:44;1.55;;;1.45;;
11805;SDS011;5960;42.602;23.482;2022-08-27T08:39:11;2.00;;;1.75;;
11805;SDS011;5960;42.602;23.482;2022-08-27T08:41:39;3.45;;;2.80;;
11805;SDS011;5960;42.602;23.482;2022-08-27T08:44:16;4.18;;;2.00;;
11805;SDS011;5960;42.602;23.482;2022-08-27T08:46:51;2.35;;;1.88;;
11805;SDS011;5960;42.602;23.482;2022-08-27T08:49:26;3.10;;;1.60;;
11805;SDS011;5960;42.602;23.482;2022-08-27T08:52:04;3.05;;;1.90;;
11805;SDS011;5960;42.602;23.482;2022-08-27T08:54:36;4.30;;;1.80;;
11805;SDS011;5960;42.602;23.482;2022-08-27T08:57:04;5.03;;;1.48;;
11805;SDS011;5960;42.602;23.482;2022-08-27T08:59:37;2.13;;;1.58;;
11805;SDS011;5960;42.602;23.482;2022-08-27T09:02:09;12.13;;;8.23;;
11805;SDS011;5960;42.602;23.482;2022-08-27T09:04:38;4.82;;;4.30;;
11805;SDS011;5960;42.602;23.482;2022-08-27T09:07:06;6.70;;;4.97;;
11805;SDS011;5960;42.602;23.482;2022-08-27T09:09:42;3.75;;;2.85;;
11805;SDS011;5960;42.602;23.482;2022-08-27T09:12:13;5.20;;;3.50;;
11805;SDS011;5960;42.602;23.482;2022-08-27T09:14:45;2.88;;;2.33;;
11805;SDS011;5960;42.602;23.482;2022-08-27T09:17:18;2.88;;;1.92;;
11805;SDS011;5960;42.602;23.482;2022-08-27T09:19:46;2.30;;;1.70;;
11805;SDS011;5960;42.602;23.482;2022-08-27T09:22:18;1.83;;;1.27;;
11805;SDS011;5960;42.602;23.482;2022-08-27T09:24:54;2.10;;;1.65;;
11805;SDS011;5960;42.602;23.482;2022-08-27T09:27:30;1.90;;;1.70;;
11805;SDS011;5960;42.602;23.482;2022-08-27T09:29:57;2.72;;;2.20;;
11805;SDS011;5960;42.602;23.482;2022-08-27T09:32:26;2.25;;;1.60;;
11805;SDS011;5960;42.602;23.482;2022-08-27T09:34:57;2.95;;;1.90;;
11805;SDS011;5960;42.602;23.482;2022-08-27T09:37:26;2.42;;;1.75;;
11805;SDS011;5960;42.602;23.482;2022-08-27T09:39:57;6.78;;;1.77;;
11805;SDS011;5960;42.602;23.482;2022-08-27T09:42:29;2.30;;;1.55;;
11805;SDS011;5960;42.602;23.482;2022-08-27T09:44:59;6.07;;;2.90;;
11805;SDS011;5960;42.602;23.482;2022-08-27T09:47:28;2.22;;;1.80;;
11805;SDS011;5960;42.602;23.482;2022-08-27T09:50:01;1.52;;;1.42;;
11805;SDS011;5960;42.602;23.482;2022-08-27T09:52:31;3.17;;;2.45;;
11805;SDS011;5960;42.602;23.482;2022-08-27T09:55:00;1.88;;;1.35;;
11805;SDS011;5960;42.602;23.482;2022-08-27T09:57:30;3.17;;;1.40;;
11805;SDS011;5960;42.602;23.482;2022-08-27T10:00:00;1.40;;;1.27;;
11805;SDS011;5960;42.602;23.482;2022-08-27T10:02:29;1.48;;;1.20;;
11805;SDS011;5960;42.602;23.482;2022-08-27T10:04:57;2.08;;;1.42;;
11805;SDS011;5960;42.602;23.482;2022-08-27T10:07:32;2.70;;;1.40;;
11805;SDS011;5960;42.602;23.482;2022-08-27T10:10:07;1.95;;;1.45;;
11805;SDS011;5960;42.602;23.482;2022-08-27T10:12:41;1.48;;;1.30;;
11805;SDS011;5960;42.602;23.482;2022-08-27T10:15:16;4.40;;;1.70;;
11805;SDS011;5960;42.602;23.482;2022-08-27T10:17:46;1.50;;;1.30;;
11805;SDS011;5960;42.602;23.482;2022-08-27T10:20:23;5.40;;;1.88;;
11805;SDS011;5960;42.602;23.482;2022-08-27T10:22:56;1.77;;;1.50;;
11805;SDS011;5960;42.602;23.482;2022-08-27T10:25:33;3.50;;;1.50;;
11805;SDS011;5960;42.602;23.482;2022-08-27T10:28:09;2.65;;;1.90;;
11805;SDS011;5960;42.602;23.482;2022-08-27T10:31:03;2.17;;;1.92;;
11805;SDS011;5960;42.602;23.482;2022-08-27T10:33:46;1.63;;;1.33;;
11805;SDS011;5960;42.602;23.482;2022-08-27T10:36:25;1.25;;;1.15;;
11805;SDS011;5960;42.602;23.482;2022-08-27T10:39:00;1.90;;;1.50;;
11805;SDS011;5960;42.602;23.482;2022-08-27T10:41:33;1.27;;;1.17;;
11805;SDS011;5960;42.602;23.482;2022-08-27T10:44:07;4.13;;;1.45;;
11805;SDS011;5960;42.602;23.482;2022-08-27T10:46:46;4.60;;;1.50;;
11805;SDS011;5960;42.602;23.482;2022-08-27T10:49:24;2.75;;;1.98;;
11805;SDS011;5960;42.602;23.482;2022-08-27T10:52:01;2.33;;;1.70;;
11805;SDS011;5960;42.602;23.482;2022-08-27T10:54:36;3.17;;;2.00;;
11805;SDS011;5960;42.602;23.482;2022-08-27T10:57:07;3.70;;;2.17;;
11805;SDS011;5960;42.602;23.482;2022-08-27T10:59:43;4.03;;;2.40;;
11805;SDS011;5960;42.602;23.482;2022-08-27T11:02:21;4.93;;;2.33;;
11805;SDS011;5960;42.602;23.482;2022-08-27T11:04:58;3.22;;;2.53;;
11805;SDS011;5960;42.602;23.482;2022-08-27T11:07:31;3.05;;;2.28;;
11805;SDS011;5960;42.602;23.482;2022-08-27T11:10:02;3.72;;;2.78;;
11805;SDS011;5960;42.602;23.482;2022-08-27T11:12:34;2.72;;;1.80;;
11805;SDS011;5960;42.602;23.482;2022-08-27T11:15:07;2.20;;;1.80;;
11805;SDS011;5960;42.602;23.482;2022-08-27T11:17:38;3.70;;;1.80;;
11805;SDS011;5960;42.602;23.482;2022-08-27T11:20:09;4.70;;;1.80;;
11805;SDS011;5960;42.602;23.482;2022-08-27T11:22:39;2.50;;;1.90;;
11805;SDS011;5960;42.602;23.482;2022-08-27T11:25:27;1.83;;;1.70;;
11805;SDS011;5960;42.602;23.482;2022-08-27T11:28:03;2.15;;;1.90;;
11805;SDS011;5960;42.602;23.482;2022-08-27T11:30:34;1.60;;;1.50;;
11805;SDS011;5960;42.602;23.482;2022-08-27T11:33:23;1.95;;;1.55;;
11805;SDS011;5960;42.602;23.482;2022-08-27T11:39:03;3.15;;;1.65;;
11805;SDS011;5960;42.602;23.482;2022-08-27T11:41:48;2.20;;;2.00;;
11805;SDS011;5960;42.602;23.482;2022-08-27T11:44:33;3.03;;;2.10;;
11805;SDS011;5960;42.602;23.482;2022-08-27T11:47:08;2.00;;;1.80;;
11805;SDS011;5960;42.602;23.482;2022-08-27T11:49:41;4.93;;;1.70;;
11805;SDS011;5960;42.602;23.482;2022-08-27T11:52:18;3.90;;;2.03;;
11805;SDS011;5960;42.602;23.482;2022-08-27T11:54:48;2.20;;;2.00;;
11805;SDS011;5960;42.602;23.482;2022-08-27T11:57:27;1.65;;;1.50;;
11805;SDS011;5960;42.602;23.482;2022-08-27T11:59:56;2.15;;;1.63;;
11805;SDS011;5960;42.602;23.482;2022-08-27T12:02:25;1.83;;;1.73;;
11805;SDS011;5960;42.602;23.482;2022-08-27T12:05:05;1.83;;;1.60;;
11805;SDS011;5960;42.602;23.482;2022-08-27T12:07:37;2.63;;;2.28;;
11805;SDS011;5960;42.602;23.482;2022-08-27T12:12:57;2.13;;;1.50;;
11805;SDS011;5960;42.602;23.482;2022-08-27T12:15:34;4.00;;;2.17;;
11805;SDS011;5960;42.602;23.482;2022-08-27T12:18:17;2.17;;;1.60;;
11805;SDS011;5960;42.602;23.482;2022-08-27T12:21:11;3.13;;;1.77;;
11805;SDS011;5960;42.602;23.482;2022-08-27T12:23:48;2.15;;;1.75;;
11805;SDS011;5960;42.602;23.482;2022-08-27T12:26:31;1.33;;;1.23;;
11805;SDS011;5960;42.602;23.482;2022-08-27T12:31:54;1.23;;;1.13;;
11805;SDS011;5960;42.602;23.482;2022-08-27T12:34:28;2.30;;;1.52;;
11805;SDS011;5960;42.602;23.482;2022-08-27T12:37:06;1.83;;;1.60;;
11805;SDS011;5960;42.602;23.482;2022-08-27T12:39:36;2.53;;;1.70;;
11805;SDS011;5960;42.602;23.482;2022-08-27T12:42:11;2.63;;;1.77;;
11805;SDS011;5960;42.602;23.482;2022-08-27T12:44:38;1.52;;;1.38;;
11805;SDS011;5960;42.602;23.482;2022-08-27T12:47:06;1.90;;;1.52;;
11805;SDS011;5960;42.602;23.482;2022-08-27T12:49:38;1.88;;;1.60;;
11805;SDS011;5960;42.602;23.482;2022-08-27T12:52:18;1.50;;;1.15;;
11805;SDS011;5960;42.602;23.482;2022-08-27T12:55:01;2.15;;;1.55;;
11805;SDS011;5960;42.602;23.482;2022-08-27T12:57:39;1.33;;;1.23;;
11805;SDS011;5960;42.602;23.482;2022-08-27T13:00:13;1.92;;;1.20;;
11805;SDS011;5960;42.602;23.482;2022-08-27T13:05:46;1.83;;;1.60;;
11805;SDS011;5960;42.602;23.482;2022-08-27T13:08:18;1.80;;;1.55;;
11805;SDS011;5960;42.602;23.482;2022-08-27T13:10:48;2.33;;;1.52;;
11805;SDS011;5960;42.602;23.482;2022-08-27T13:13:16;1.70;;;1.50;;
11805;SDS011;5960;42.602;23.482;2022-08-27T13:15:45;1.38;;;1.27;;
11805;SDS011;5960;42.602;23.482;2022-08-27T13:18:14;1.88;;;1.30;;
11805;SDS011;5960;42.602;23.482;2022-08-27T13:20:41;3.95;;;1.50;;
11805;SDS011;5960;42.602;23.482;2022-08-27T13:23:11;1.42;;;1.33;;
11805;SDS011;5960;42.602;23.482;2022-08-27T13:25:40;1.88;;;1.73;;
11805;SDS011;5960;42.602;23.482;2022-08-27T13:28:19;2.20;;;1.58;;
11805;SDS011;5960;42.602;23.482;2022-08-27T13:30:48;4.07;;;1.65;;
11805;SDS011;5960;42.602;23.482;2022-08-27T13:33:18;1.40;;;1.30;;
11805;SDS011;5960;42.602;23.482;2022-08-27T13:35:47;2.03;;;1.65;;
11805;SDS011;5960;42.602;23.482;2022-08-27T13:38:15;3.40;;;1.50;;
11805;SDS011;5960;42.602;23.482;2022-08-27T13:40:50;1.30;;;1.20;;
11805;SDS011;5960;42.602;23.482;2022-08-27T13:43:24;2.03;;;1.58;;
11805;SDS011;5960;42.602;23.482;2022-08-27T13:45:59;2.70;;;1.42;;
11805;SDS011;5960;42.602;23.482;2022-08-27T13:48:27;2.05;;;1.73;;
11805;SDS011;5960;42.602;23.482;2022-08-27T13:50:54;1.92;;;1.67;;
11805;SDS011;5960;42.602;23.482;2022-08-27T13:53:23;2.00;;;1.80;;
11805;SDS011;5960;42.602;23.482;2022-08-27T13:56:09;2.42;;;1.55;;
11805;SDS011;5960;42.602;23.482;2022-08-27T13:58:38;2.45;;;1.90;;
11805;SDS011;5960;42.602;23.482;2022-08-27T14:01:09;2.35;;;1.63;;
11805;SDS011;5960;42.602;23.482;2022-08-27T14:03:45;1.85;;;1.65;;
11805;SDS011;5960;42.602;23.482;2022-08-27T14:06:21;1.98;;;1.65;;
11805;SDS011;5960;42.602;23.482;2022-08-27T14:08:48;3.33;;;1.50;;
11805;SDS011;5960;42.602;23.482;2022-08-27T14:11:16;2.28;;;1.77;;
11805;SDS011;5960;42.602;23.482;2022-08-27T14:13:51;1.92;;;1.67;;
11805;SDS011;5960;42.602;23.482;2022-08-27T14:16:24;2.05;;;1.60;;
11805;SDS011;5960;42.602;23.482;2022-08-27T14:18:53;1.95;;;1.60;;
11805;SDS011;5960;42.602;23.482;2022-08-27T14:21:22;1.40;;;1.30;;
11805;SDS011;5960;42.602;23.482;2022-08-27T14:23:49;2.55;;;1.85;;
11805;SDS011;5960;42.602;23.482;2022-08-27T14:26:18;2.03;;;1.30;;
11805;SDS011;5960;42.602;23.482;2022-08-27T14:28:45;2.05;;;1.88;;
11805;SDS011;5960;42.602;23.482;2022-08-27T14:31:13;3.28;;;1.67;;
11805;SDS011;5960;42.602;23.482;2022-08-27T14:33:40;3.40;;;2.20;;
11805;SDS011;5960;42.602;23.482;2022-08-27T14:36:07;1.40;;;1.30;;
11805;SDS011;5960;42.602;23.482;2022-08-27T14:38:37;2.92;;;1.85;;
11805;SDS011;5960;42.602;23.482;2022-08-27T14:41:05;1.83;;;1.33;;
11805;SDS011;5960;42.602;23.482;2022-08-27T14:43:31;1.40;;;1.30;;
11805;SDS011;5960;42.602;23.482;2022-08-27T14:45:58;1.38;;;1.27;;
11805;SDS011;5960;42.602;23.482;2022-08-27T14:48:27;2.33;;;1.67;;
11805;SDS011;5960;42.602;23.482;2022-08-27T14:50:57;1.88;;;1.63;;
11805;SDS011;5960;42.602;23.482;2022-08-27T14:53:26;2.05;;;1.63;;
11805;SDS011;5960;42.602;23.482;2022-08-27T14:55:53;1.50;;;1.40;;
11805;SDS011;5960;42.602;23.482;2022-08-27T14:58:22;1.80;;;1.70;;
11805;SDS011;5960;42.602;23.482;2022-08-27T15:00:53;3.67;;;1.83;;
11805;SDS011;5960;42.602;23.482;2022-08-27T15:03:21;2.53;;;1.90;;
11805;SDS011;5960;42.602;23.482;2022-08-27T15:05:51;2.83;;;1.80;;
11805;SDS011;5960;42.602;23.482;2022-08-27T15:08:19;2.60;;;1.90;;
11805;SDS011;5960;42.602;23.482;2022-08-27T15:10:46;2.45;;;1.80;;
11805;SDS011;5960;42.602;23.482;2022-08-27T15:13:13;1.60;;;1.50;;
11805;SDS011;5960;42.602;23.482;2022-08-27T15:15:39;2.45;;;1.63;;